ADDS TAF Board (Experimental) INFO Settings
IDs: Format: Expanded Condensed

KIAH - Houston/Bush Intl, TX, US

Issued at 2001 UTC 29 Sep 2016
Updated at 2023 UTC 29 Sep 2016
Time1953Z 29/21Z 29/22Z 29/23Z 30/00Z 30/01Z 30/02Z 30/03Z 30/04Z 30/05Z 30/06Z 30/07Z 30/08Z 30/09Z
Type OBS PRVL PRVL PRVL PRVL PRVL PRVL PRVL PRVL PRVL PRVL PRVL PRVL PRVL
VIS 10 >6 >6 >6 >6 >6 >6 >6 >6 >6 >6 >6 >6 >6
CIG -- -- -- -- -- -- -- -- -- -- -- -- -- --
Cover FEW FEW FEW FEW FEW FEW FEW SKC SKC SKC SKC SKC SKC SKC
FltCat VFR VFR VFR VFR VFR VFR VFR VFR VFR VFR VFR VFR VFR VFR
WX -- -- -- -- -- -- -- -- -- -- -- -- -- --
WDir 20 10 10 10 10 10 10 VRB VRB VRB VRB VRB VRB VRB
WSpd 10 11 11 11 11 11 11 5 5 5 5 5 5 5
WGst 18 -- -- -- -- -- -- -- -- -- -- -- -- --
R08/26
XWnd 9 11 11 11 11 11 11 VRB VRB VRB VRB VRB VRB VRB
XGst 17 -- -- -- -- -- -- -- -- -- -- -- -- --
HWnd 3 2 2 2 2 2 2 VRB VRB VRB VRB VRB VRB VRB
HGst 6 -- -- -- -- -- -- -- -- -- -- -- -- --
R09/27
XWnd 9 11 11 11 11 11 11 VRB VRB VRB VRB VRB VRB VRB
XGst 17 -- -- -- -- -- -- -- -- -- -- -- -- --
HWnd 3 2 2 2 2 2 2 VRB VRB VRB VRB VRB VRB VRB
HGst 6 -- -- -- -- -- -- -- -- -- -- -- -- --
R15/33
XWnd 7 7 7 7 7 7 7 VRB VRB VRB VRB VRB VRB VRB
XGst 13 -- -- -- -- -- -- -- -- -- -- -- -- --
HWnd -7 -9 -9 -9 -9 -9 -9 VRB VRB VRB VRB VRB VRB VRB
HGst -12 -- -- -- -- -- -- -- -- -- -- -- -- --

Raw TAF
KIAH 292001Z 2920/3024 01011KT P6SM FEW250
  FM300300 VRB05KT P6SM SKC


Raw METAR
KIAH 291953Z 02010G18KT 10SM FEW250 FEW300 30/16 A3012 RMK AO2 SLP199 T03000156
KIAH 291853Z 36011G17KT 10SM FEW250 FEW300 29/16 A3013 RMK AO2 SLP201 T02940161
KIAH 291753Z 02010G17KT 10SM FEW200 FEW300 28/16 A3015 RMK AO2 SLP208 T02780161 10278 20183 58000

METAR Board
Radar Display
Forecast Discussion

TAF Board Legend

Potential Impact
Threat None Slight Moderate High
Visibility (sm) ≥5.1 5.1>X≥3 3>X≥1 <1
Ceiling (100 ft) ≥30.1 30.1>X≥10 10>X≥5 <5
Wind Speed (kt) <10 10≤X<20 20≤X<30 ≥30
Wind Gust (kt) <15 15≤X<25 25≤X<35 ≥35
Weather No Wx Reported VCTS,-TS,-FZRA,SN TS,FZRA +TS,+FZRA,+SN